Airfield :
LOGIN :

Register | Disclaimer

   EN    FR    IT 

 










Legend :    VFR   Marginal VFR   IFR   Intensive IFR   Very Intensive IFR
Visi :
Ceiling :
>= 8 km
>= 3000ft
5 to 8 km
1000 to 3000 ft
1500m to 5 km
500 to 1000 ft
800 to 1500m
200 to 500 ft
< 800m
< 200 ft
Symbols :   Thunderstorms  Fog  Heavy snow  Heavy precipitations  Wind > 20 kt
SIGMETs :     Misc.  Thunderstorms  Icing  Turbulence  Mountain Waves  Volcanic Ashes






- Airport Elevation : 297 ft
- IATA code : UIP


LFRQ - Quimper Pluguffan

CURRENT METAR :
  • 091030Z AUTO 32021KT 290V350 9999 FEW028 BKN033 BKN041 11/05 Q1022 BECMG 28022G35KT

EXPIRED METARs :
  • 091000Z AUTO 32017KT 9999 SCT033 SCT043 OVC054 10/06 Q1021 BECMG 28022G35KT
  • 090930Z AUTO 32019KT 9999 -RA SCT035 BKN041 BKN048 11/06 Q1021 BECMG 28022G35KT
  • 090900Z AUTO 32019G30KT 9999 -RA SCT031 SCT037 BKN045 10/06 Q1020 TEMPO 28025G45KT 4000 SHRA SCT010 BKN015TCU
  • 090830Z AUTO 32019KT 9999 FEW028 BKN033 BKN040 10/06 Q1019 TEMPO 4000 SHRA SCT010 BKN015TCU BECMG 28022G35KT
  • 090800Z AUTO 32023G38KT 9999 -RA BKN033/// BKN042/// OVC054/// ///TCU 09/06 Q1019 TEMPO 4000 SHRA

TAF TAF LFRQ
Valid from the 09 at 06:00 until the 10 at 06:00 UTC


090500Z 0906/1006 28022G35KT 9999 SCT020 BKN030 OVC040
TEMPO 0906/0910 28025G45KT 4000 SHRA SCT010 BKN015TCU
BECMG 0915/0919 32010KT
BECMG 0921/0924 20007KT



MET'MAP, your aeronautical weather chart ! - Copyright ORBIFLY December 2007 - Disclaimer

ORBIFLY MET'MAP TEAM :

Programming & Development : Alexandra Zaïnal
Concept & original design : Baudouin d'Aumeries
Assistance for programming : Marc-Olivier Méhu
Technical & hardware support : Manuel Goepfert

Contact : metmap@orbifly.com




SOURCES & CREDITS :

   NOAA